Time;durP1;ratioP1;P1;durP2;ratioP2;P2;SDS_P1;SDS_P2;PMS_P1;PMS_P2;Temp;Humidity;BMP_temperature;BMP_pressure;BME280_temperature;BME280_humidity;BME280_pressure;Samples;Min_cycle;Max_cycle;Signal;HPM_P1;HPM_P2
2021/10/09 00:00:06;;;;;;;59.92;31.98;;;;;;;11.89;77.78;103101.63;4888528;28;20051;-67
2021/10/09 00:02:31;;;;;;;68.57;35.05;;;;;;;11.89;78.14;103095.50;4870262;28;20968;-67
2021/10/09 00:04:57;;;;;;;56.58;30.38;;;;;;;11.94;77.84;103105.31;4889144;28;20044;-66
2021/10/09 00:07:22;;;;;;;51.83;27.27;;;;;;;11.90;77.36;103100.78;4891235;28;20075;-67
2021/10/09 00:09:50;;;;;;;53.15;28.08;;;;;;;11.92;77.06;103100.84;4887639;28;20134;-67
2021/10/09 00:12:16;;;;;;;62.92;32.03;;;;;;;11.88;77.59;103099.84;4870803;28;20107;-64
2021/10/09 00:14:41;;;;;;;58.38;30.15;;;;;;;11.92;77.47;103095.63;4882612;28;20340;-66
2021/10/09 00:17:09;;;;;;;58.13;32.00;;;;;;;11.91;77.78;103099.06;4872285;29;20712;-67
2021/10/09 00:19:34;;;;;;;54.35;29.95;;;;;;;11.94;77.03;103093.97;4879912;29;20433;-68
2021/10/09 00:22:00;;;;;;;52.35;27.42;;;;;;;11.90;77.17;103094.66;4873953;29;20058;-67
2021/10/09 00:24:25;;;;;;;62.95;33.50;;;;;;;11.85;77.82;103104.00;4880531;28;20051;-67
2021/10/09 00:26:50;;;;;;;51.50;27.98;;;;;;;11.85;77.27;103101.41;4886298;28;20134;-67
2021/10/09 00:29:16;;;;;;;48.63;26.65;;;;;;;11.78;76.59;103095.00;4885878;28;20453;-66
2021/10/09 00:31:41;;;;;;;48.78;25.90;;;;;;;11.74;76.97;103104.44;4881471;29;20039;-67
2021/10/09 00:34:06;;;;;;;53.08;29.33;;;;;;;11.75;76.77;103102.72;4885222;28;20062;-67
2021/10/09 00:36:32;;;;;;;64.93;33.10;;;;;;;11.73;77.15;103104.34;4870644;28;20480;-68
2021/10/09 00:38:57;;;;;;;58.00;30.60;;;;;;;11.77;77.42;103106.31;4884138;28;20043;-68
2021/10/09 00:41:23;;;;;;;56.40;28.48;;;;;;;11.75;77.11;103105.34;4888319;29;20600;-68
2021/10/09 00:43:48;;;;;;;62.03;31.58;;;;;;;11.69;77.62;103098.09;4883402;28;20570;-68
2021/10/09 00:46:14;;;;;;;59.38;31.63;;;;;;;11.74;77.77;103098.31;4883445;28;20194;-66
2021/10/09 00:48:40;;;;;;;63.72;31.85;;;;;;;11.75;77.89;103100.13;4885471;28;20047;-68
2021/10/09 00:51:05;;;;;;;57.03;29.50;;;;;;;11.75;77.50;103097.50;4870432;29;20048;-66
2021/10/09 00:53:32;;;;;;;62.08;31.42;;;;;;;11.71;77.39;103095.56;4884749;28;20127;-66
2021/10/09 00:55:59;;;;;;;50.25;27.90;;;;;;;11.70;77.03;103092.06;4885110;28;20155;-67
2021/10/09 00:58:25;;;;;;;55.97;29.45;;;;;;;11.64;77.12;103094.41;4875346;28;20348;-67
2021/10/09 01:00:50;;;;;;;57.78;28.80;;;;;;;11.63;76.89;103094.31;4867468;29;20326;-67
2021/10/09 01:03:17;;;;;;;73.32;35.88;;;;;;;11.64;77.72;103090.88;4887618;28;20153;-68
2021/10/09 01:05:42;;;;;;;60.63;31.00;;;;;;;11.66;77.94;103097.94;4892126;28;20561;-67
2021/10/09 01:08:08;;;;;;;65.20;31.40;;;;;;;11.67;77.56;103084.06;4878478;29;20058;-67
2021/10/09 01:10:34;;;;;;;71.80;34.60;;;;;;;11.67;77.67;103094.50;4868619;29;20143;-68
2021/10/09 01:13:03;;;;;;;56.13;29.55;;;;;;;11.70;77.74;103086.81;4881183;28;20050;-67
2021/10/09 01:15:30;;;;;;;58.70;29.95;;;;;;;11.64;77.21;103090.88;4884412;29;20062;-68
2021/10/09 01:17:55;;;;;;;58.95;29.08;;;;;;;11.61;77.38;103083.78;4866255;28;20082;-68
2021/10/09 01:20:21;;;;;;;61.60;30.92;;;;;;;11.63;77.75;103089.09;4878146;28;20138;-67
2021/10/09 01:22:47;;;;;;;78.13;36.15;;;;;;;11.62;77.82;103090.81;4885040;28;20125;-68
2021/10/09 01:25:13;;;;;;;66.57;33.10;;;;;;;11.67;77.64;103078.84;4883867;28;21594;-67
2021/10/09 01:27:40;;;;;;;58.10;30.05;;;;;;;11.62;77.46;103079.47;4888382;28;20054;-67
2021/10/09 01:30:07;;;;;;;55.20;28.70;;;;;;;11.57;77.13;103076.66;4884880;28;20530;-67
2021/10/09 01:32:32;;;;;;;57.10;29.80;;;;;;;11.58;77.24;103075.84;4879598;29;20072;-67
2021/10/09 01:34:57;;;;;;;61.45;30.98;;;;;;;11.61;77.12;103072.44;4886911;29;20450;-67
2021/10/09 01:37:23;;;;;;;65.13;31.75;;;;;;;11.52;77.48;103074.66;4884719;29;20080;-67
2021/10/09 01:39:48;;;;;;;79.55;36.60;;;;;;;11.51;77.54;103080.72;4885211;29;20044;-67
2021/10/09 01:42:14;;;;;;;62.75;31.58;;;;;;;11.53;77.44;103074.72;4880215;28;20067;-67
2021/10/09 01:44:40;;;;;;;66.75;32.10;;;;;;;11.51;77.39;103072.88;4879545;28;20047;-67
2021/10/09 01:47:05;;;;;;;77.90;36.83;;;;;;;11.53;77.76;103074.72;4889841;29;20123;-68
2021/10/09 01:49:31;;;;;;;75.25;35.10;;;;;;;11.53;78.07;103071.19;4893259;28;20512;-67
2021/10/09 01:51:56;;;;;;;73.50;34.95;;;;;;;11.54;77.71;103075.59;4887511;29;20555;-67
2021/10/09 01:54:22;;;;;;;73.72;34.17;;;;;;;11.51;78.07;103071.16;4880362;28;20091;-67
2021/10/09 01:56:47;;;;;;;72.93;33.15;;;;;;;11.47;77.85;103066.59;4890342;29;20075;-67
2021/10/09 01:59:13;;;;;;;65.50;30.25;;;;;;;11.43;77.36;103076.84;4882970;28;20042;-68
2021/10/09 02:01:38;;;;;;;53.35;27.60;;;;;;;11.30;76.98;103071.06;4887212;28;20044;-67
2021/10/09 02:04:04;;;;;;;53.22;27.27;;;;;;;11.17;77.10;103067.84;4882106;29;20056;-68
2021/10/09 02:06:30;;;;;;;58.92;29.25;;;;;;;11.07;77.19;103063.03;4879676;28;20055;-68
2021/10/09 02:08:55;;;;;;;52.25;26.25;;;;;;;10.98;77.12;103064.38;4878177;28;20071;-67
2021/10/09 02:11:23;;;;;;;67.60;30.55;;;;;;;10.93;77.28;103058.06;4894531;28;20561;-68
2021/10/09 02:14:04;;;;;;;59.50;28.80;;;;;;;10.88;77.78;103059.56;4867601;29;20512;-68
2021/10/09 02:24:44;;;;;;;112.55;42.45;;;;;;;11.02;79.73;103056.72;4883315;28;20055;-66
2021/10/09 02:27:09;;;;;;;91.65;36.58;;;;;;;11.13;78.69;103052.88;4882849;28;20035;-67
2021/10/09 02:29:35;;;;;;;82.75;34.80;;;;;;;11.09;78.59;103054.47;4869679;29;20058;-67
2021/10/09 02:32:01;;;;;;;70.60;32.17;;;;;;;11.04;77.80;103053.31;4883617;29;20052;-68
2021/10/09 02:34:26;;;;;;;63.72;29.10;;;;;;;10.93;77.66;103049.31;4853505;28;20127;-67
2021/10/09 02:36:51;;;;;;;58.42;27.90;;;;;;;10.83;77.71;103050.63;4892007;28;20278;-68
2021/10/09 02:39:17;;;;;;;61.38;29.55;;;;;;;10.74;77.63;103049.28;4887053;28;20071;-67
2021/10/09 02:41:42;;;;;;;65.68;29.50;;;;;;;10.65;77.22;103054.97;4888601;29;20084;-67
2021/10/09 02:44:08;;;;;;;68.97;31.08;;;;;;;10.56;77.44;103047.59;4885244;29;20047;-67
2021/10/09 02:46:33;;;;;;;59.60;28.05;;;;;;;10.52;77.44;103053.50;4874962;29;20035;-67
2021/10/09 02:48:58;;;;;;;68.22;31.58;;;;;;;10.46;77.78;103052.31;4889626;29;20260;-68
2021/10/09 02:51:24;;;;;;;70.47;30.05;;;;;;;10.43;77.76;103049.56;4887680;29;20662;-68
2021/10/09 02:53:49;;;;;;;69.03;32.25;;;;;;;10.39;78.09;103050.22;4890646;28;20047;-67
2021/10/09 02:56:14;;;;;;;66.43;28.92;;;;;;;10.39;77.57;103051.09;4883821;29;20054;-68
2021/10/09 02:58:40;;;;;;;57.67;28.08;;;;;;;10.37;78.03;103044.91;4872221;29;20036;-67
2021/10/09 03:01:05;;;;;;;89.72;35.83;;;;;;;10.44;78.38;103040.91;4883381;28;20056;-67
2021/10/09 03:03:31;;;;;;;77.40;31.30;;;;;;;10.50;78.24;103047.31;4887560;28;20476;-67
2021/10/09 03:05:56;;;;;;;78.82;32.78;;;;;;;10.53;78.03;103043.97;4874501;29;20050;-67
2021/10/09 03:08:22;;;;;;;61.80;28.20;;;;;;;10.54;77.93;103041.44;4872537;28;20180;-67
2021/10/09 03:10:47;;;;;;;62.22;28.80;;;;;;;10.54;77.85;103043.16;4885054;29;20115;-66
2021/10/09 03:13:13;;;;;;;73.90;30.27;;;;;;;10.58;78.14;103043.34;4885312;28;20055;-67
2021/10/09 03:15:38;;;;;;;76.38;32.53;;;;;;;10.61;77.97;103050.44;4893067;28;20051;-66
2021/10/09 03:18:04;;;;;;;71.07;30.15;;;;;;;10.60;77.62;103043.44;4888158;28;20134;-67
2021/10/09 03:20:29;;;;;;;68.72;29.02;;;;;;;10.59;77.79;103046.88;4877219;28;20154;-68
2021/10/09 03:22:54;;;;;;;76.80;32.08;;;;;;;10.60;78.04;103039.94;4891952;28;20134;-67
2021/10/09 03:25:20;;;;;;;88.82;36.05;;;;;;;10.62;77.75;103039.16;4883882;28;20126;-67
2021/10/09 03:27:45;;;;;;;77.00;31.90;;;;;;;10.68;78.29;103046.38;4886541;29;20080;-68
2021/10/09 03:30:11;;;;;;;91.93;36.22;;;;;;;10.69;78.32;103049.06;4882507;28;20048;-68
2021/10/09 03:32:36;;;;;;;102.75;38.85;;;;;;;10.72;78.24;103040.50;4876706;28;21142;-67
2021/10/09 03:35:02;;;;;;;88.00;35.60;;;;;;;10.75;78.66;103041.53;4893860;28;20066;-67
2021/10/09 03:37:28;;;;;;;91.80;36.25;;;;;;;10.70;78.21;103040.44;4886523;28;20508;-67
2021/10/09 03:39:55;;;;;;;77.72;32.45;;;;;;;10.71;77.83;103044.84;4881435;29;21192;-67
2021/10/09 03:42:31;;;;;;;80.20;31.65;;;;;;;10.68;77.91;103039.47;4877721;29;20566;-67
2021/10/09 03:45:01;;;;;;;78.43;32.63;;;;;;;10.66;78.57;103043.72;4883957;28;20576;-67
2021/10/09 03:50:07;;;;;;;66.07;27.92;;;;;;;10.50;78.12;103047.31;4885771;29;20417;-67
2021/10/09 03:52:38;;;;;;;106.68;36.92;;;;;;;10.49;78.05;103042.91;4874338;28;20910;-68
2021/10/09 03:55:06;;;;;;;75.70;31.15;;;;;;;10.54;78.21;103040.53;4889283;28;20043;-66
2021/10/09 03:57:31;;;;;;;74.20;30.73;;;;;;;10.52;78.11;103052.59;4886386;28;20462;-67
2021/10/09 03:59:57;;;;;;;88.88;36.15;;;;;;;10.55;78.17;103042.34;4877971;28;20511;-68
2021/10/09 04:02:22;;;;;;;79.57;30.58;;;;;;;10.53;77.86;103047.47;4874329;28;20508;-66
2021/10/09 04:04:47;;;;;;;75.97;29.67;;;;;;;10.48;77.87;103043.75;4889426;28;20489;-67
2021/10/09 04:07:13;;;;;;;115.10;40.50;;;;;;;10.47;78.72;103043.66;4874640;29;20044;-67
2021/10/09 04:09:38;;;;;;;97.20;36.55;;;;;;;10.50;78.80;103039.47;4873034;29;20588;-67
2021/10/09 04:12:04;;;;;;;79.43;31.48;;;;;;;10.54;78.49;103044.03;4885901;28;20063;-67
2021/10/09 04:14:29;;;;;;;81.00;31.67;;;;;;;10.53;78.27;103036.13;4878096;28;20048;-67
2021/10/09 04:16:55;;;;;;;81.63;31.65;;;;;;;10.50;78.23;103039.47;4880328;29;20048;-66
2021/10/09 04:19:20;;;;;;;77.25;31.90;;;;;;;10.46;77.76;103042.78;4888203;28;20371;-67
2021/10/09 04:21:46;;;;;;;73.13;30.67;;;;;;;10.43;78.00;103032.19;4874651;29;20141;-67
2021/10/09 04:24:17;;;;;;;65.68;28.67;;;;;;;10.41;77.87;103038.16;4887183;29;20548;-67
2021/10/09 04:26:43;;;;;;;80.93;29.55;;;;;;;10.38;77.90;103043.19;4889746;28;20046;-67
2021/10/09 04:29:08;;;;;;;82.25;33.28;;;;;;;10.37;78.25;103041.44;4878066;29;20044;-67
2021/10/09 04:31:34;;;;;;;85.78;34.65;;;;;;;10.40;78.32;103045.09;4893041;29;20031;-66
2021/10/09 04:33:59;;;;;;;81.30;32.63;;;;;;;10.44;78.16;103040.91;4880961;29;20059;-66
2021/10/09 04:36:24;;;;;;;86.85;34.20;;;;;;;10.44;78.50;103038.28;4878752;28;20088;-69
2021/10/09 04:38:50;;;;;;;90.55;33.45;;;;;;;10.44;78.41;103033.97;4863992;29;20693;-67
2021/10/09 04:41:15;;;;;;;79.00;31.50;;;;;;;10.45;78.10;103035.75;4882906;29;20044;-66
2021/10/09 04:43:41;;;;;;;85.60;34.47;;;;;;;10.47;78.43;103034.13;4886629;28;20056;-67
2021/10/09 04:46:06;;;;;;;90.15;34.75;;;;;;;10.47;78.33;103033.22;4874821;29;20130;-67
2021/10/09 04:48:31;;;;;;;91.40;33.90;;;;;;;10.51;78.79;103041.28;4881229;28;20587;-67
2021/10/09 04:50:57;;;;;;;78.70;32.35;;;;;;;10.51;78.53;103025.63;4885643;28;20142;-67
2021/10/09 04:53:22;;;;;;;97.20;37.05;;;;;;;10.50;78.69;103025.53;4864791;29;20062;-66
2021/10/09 04:55:47;;;;;;;85.30;35.35;;;;;;;10.49;78.26;103026.38;4885988;28;20041;-68
2021/10/09 04:58:13;;;;;;;86.90;34.35;;;;;;;10.42;78.71;103030.41;4861009;29;20070;-67
2021/10/09 05:00:39;;;;;;;78.57;33.47;;;;;;;10.47;78.24;103028.03;4877626;28;20048;-67
2021/10/09 05:03:05;;;;;;;72.05;29.83;;;;;;;10.43;77.99;103020.88;4886389;28;20397;-67
2021/10/09 05:05:30;;;;;;;91.65;35.05;;;;;;;10.38;78.79;103025.84;4889544;29;20336;-66
2021/10/09 05:07:55;;;;;;;93.18;33.28;;;;;;;10.35;78.42;103017.91;4881238;28;20055;-67
2021/10/09 05:10:24;;;;;;;98.07;35.47;;;;;;;10.36;78.49;103024.00;4874564;28;20039;-66
2021/10/09 05:12:50;;;;;;;72.22;30.80;;;;;;;10.37;78.02;103034.47;4884455;28;21545;-68
2021/10/09 05:15:16;;;;;;;80.82;32.30;;;;;;;10.34;78.39;103028.25;4885177;28;20131;-68
2021/10/09 05:17:41;;;;;;;112.97;38.17;;;;;;;10.33;78.75;103029.06;4879183;29;20036;-68
2021/10/09 05:20:07;;;;;;;89.65;33.92;;;;;;;10.34;78.66;103025.63;4886791;28;20628;-68
2021/10/09 05:22:32;;;;;;;86.97;33.53;;;;;;;10.32;78.42;103029.88;4879621;28;20554;-68
2021/10/09 05:24:58;;;;;;;83.95;33.28;;;;;;;10.26;78.50;103029.56;4890357;28;20070;-67
2021/10/09 05:27:25;;;;;;;75.40;31.48;;;;;;;10.22;78.79;103033.75;4887368;28;20048;-66
2021/10/09 05:29:51;;;;;;;102.57;37.47;;;;;;;10.16;79.05;103025.59;4888918;28;20039;-67
2021/10/09 05:32:23;;;;;;;93.07;35.25;;;;;;;10.31;78.85;103031.59;4883871;28;20571;-67
2021/10/09 05:34:48;;;;;;;84.68;32.65;;;;;;;10.33;78.70;103035.16;4890643;28;20035;-67
2021/10/09 05:37:13;;;;;;;113.53;38.33;;;;;;;10.31;79.03;103038.50;4892322;28;20718;-67
2021/10/09 05:39:39;;;;;;;91.68;34.58;;;;;;;10.29;78.53;103032.34;4888303;28;20059;-67
2021/10/09 05:42:04;;;;;;;70.45;30.05;;;;;;;10.28;78.65;103038.38;4882581;28;20086;-66
2021/10/09 05:44:30;;;;;;;70.28;29.52;;;;;;;10.23;77.82;103039.88;4860285;28;20040;-67
2021/10/09 05:46:55;;;;;;;81.93;31.17;;;;;;;10.18;78.00;103030.94;4894140;28;20044;-67
2021/10/09 05:49:20;;;;;;;82.13;31.27;;;;;;;10.15;78.11;103035.13;4887093;28;20124;-68
2021/10/09 05:51:57;;;;;;;72.65;28.92;;;;;;;10.12;78.07;103042.78;4886045;29;20078;-67
2021/10/09 05:54:30;;;;;;;89.75;31.98;;;;;;;10.10;78.42;103043.53;4868276;28;20032;-67
2021/10/09 06:02:14;;;;;;;87.35;31.70;;;;;;;10.21;78.75;103034.56;4883491;28;20127;-68
2021/10/09 07:01:32;;;;;;;67.23;32.27;;;;;;;11.46;77.28;103100.50;4880493;29;20076;-67
2021/10/09 07:03:58;;;;;;;71.88;32.00;;;;;;;11.57;77.42;103099.28;4847776;29;20151;-68
2021/10/09 07:06:23;;;;;;;63.33;31.00;;;;;;;11.54;76.93;103096.50;4860524;29;20052;-68
2021/10/09 07:08:50;;;;;;;60.78;31.33;;;;;;;11.47;76.88;103095.34;4881815;29;20068;-66
2021/10/09 07:11:16;;;;;;;64.43;32.05;;;;;;;11.67;76.92;103098.84;4888649;28;20478;-67
2021/10/09 07:13:46;;;;;;;64.05;31.92;;;;;;;11.70;76.96;103092.06;4860791;29;20055;-67
2021/10/09 07:16:16;;;;;;;57.75;30.80;;;;;;;11.70;76.55;103096.38;4890393;29;20521;-67
2021/10/09 07:18:44;;;;;;;62.75;31.27;;;;;;;11.76;76.70;103102.81;4867019;29;20048;-67
2021/10/09 07:21:10;;;;;;;63.17;31.83;;;;;;;11.79;76.52;103096.81;4867177;29;20055;-67
2021/10/09 07:23:35;;;;;;;58.70;30.25;;;;;;;11.76;76.33;103102.81;4873886;29;20059;-67
2021/10/09 07:26:01;;;;;;;63.58;31.10;;;;;;;11.94;76.67;103107.03;4888712;29;20032;-66
2021/10/09 07:28:26;;;;;;;56.25;30.17;;;;;;;12.07;76.19;103102.41;4860591;29;20035;-66
2021/10/09 07:30:53;;;;;;;59.60;31.55;;;;;;;12.11;76.06;103106.03;4883559;29;20046;-68
2021/10/09 07:33:19;;;;;;;59.28;31.10;;;;;;;12.17;76.08;103108.91;4846405;29;20556;-67
2021/10/09 07:35:44;;;;;;;55.50;29.65;;;;;;;12.17;76.10;103111.53;4852923;29;20040;-67
2021/10/09 07:38:11;;;;;;;54.63;30.33;;;;;;;12.09;75.86;103111.19;4853656;29;20044;-67
2021/10/09 07:40:36;;;;;;;55.90;30.08;;;;;;;12.20;76.04;103104.69;4877737;29;20622;-68
2021/10/09 07:43:07;;;;;;;59.03;31.13;;;;;;;12.33;75.66;103115.66;4890310;29;20122;-69
2021/10/09 07:45:33;;;;;;;58.60;31.42;;;;;;;12.41;75.58;103117.78;4858352;29;20032;-67
2021/10/09 07:48:00;;;;;;;55.40;30.58;;;;;;;12.35;75.40;103112.31;4885916;29;20627;-67
2021/10/09 07:50:29;;;;;;;57.50;30.10;;;;;;;12.46;75.44;103111.00;4867127;28;20175;-67
2021/10/09 07:52:55;;;;;;;57.95;30.98;;;;;;;12.56;75.17;103102.69;4834815;29;20047;-67
2021/10/09 07:55:21;;;;;;;55.22;30.02;;;;;;;12.48;75.25;103106.75;4864850;29;20036;-67
2021/10/09 07:57:47;;;;;;;55.53;30.40;;;;;;;12.72;74.95;103113.81;4875935;29;20086;-67
2021/10/09 08:00:17;;;;;;;52.97;29.77;;;;;;;12.76;74.89;103108.75;4847438;29;20118;-68
2021/10/09 08:02:52;;;;;;;56.88;29.67;;;;;;;12.88;74.39;103106.59;4845782;29;20490;-68
2021/10/09 08:05:24;;;;;;;50.10;28.58;;;;;;;13.08;74.71;103104.78;4874530;28;20111;-68
2021/10/09 08:07:51;;;;;;;50.83;28.95;;;;;;;13.20;73.93;103105.28;4843245;29;20040;-68
2021/10/09 08:10:17;;;;;;;54.30;29.98;;;;;;;13.25;73.34;103108.97;4861304;29;20379;-65
2021/10/09 08:12:44;;;;;;;53.10;30.05;;;;;;;13.26;74.15;103112.47;4855524;29;20083;-67
2021/10/09 08:15:09;;;;;;;51.47;29.88;;;;;;;13.36;73.46;103114.59;4856364;29;20052;-67
2021/10/09 08:17:36;;;;;;;50.45;29.30;;;;;;;13.47;73.10;103115.00;4877163;29;20146;-67
2021/10/09 08:20:05;;;;;;;47.63;29.15;;;;;;;13.63;72.55;103109.50;4867767;28;20656;-67
2021/10/09 08:22:33;;;;;;;55.35;30.83;;;;;;;13.42;72.70;103114.81;4865724;28;20052;-66
2021/10/09 08:28:04;;;;;;;48.80;29.25;;;;;;;13.40;72.37;103114.78;4865355;29;20099;-67
2021/10/09 08:36:14;;;;;;;52.90;30.05;;;;;;;13.87;72.30;103120.84;4851085;29;20074;-67
2021/10/09 08:38:53;;;;;;;52.35;30.05;;;;;;;14.09;71.72;103118.13;4830237;29;21674;-66
2021/10/09 08:41:19;;;;;;;49.60;29.95;;;;;;;14.26;70.46;103117.84;4872762;29;20052;-67
2021/10/09 08:43:46;;;;;;;53.38;29.70;;;;;;;14.35;71.45;103119.03;4864253;29;20051;-66
2021/10/09 08:46:13;;;;;;;50.05;29.08;;;;;;;14.58;70.79;103117.19;4871609;29;20055;-67
2021/10/09 08:48:43;;;;;;;48.95;28.77;;;;;;;14.64;69.69;103119.16;4826722;28;21340;-67
2021/10/09 08:51:20;;;;;;;51.42;29.30;;;;;;;14.72;70.34;103117.63;4853703;29;20099;-67
2021/10/09 08:53:46;;;;;;;46.38;28.08;;;;;;;14.77;69.34;103122.19;4857742;29;20072;-67
2021/10/09 08:56:38;;;;;;;48.63;30.10;;;;;;;14.87;68.79;103107.63;4848877;29;20055;-66
2021/10/09 08:59:12;;;;;;;47.85;29.48;;;;;;;14.93;69.49;103113.97;4867703;29;20130;-68
2021/10/09 09:07:27;;;;;;;48.10;29.80;;;;;;;15.43;66.86;103123.34;4885696;28;20130;-66
2021/10/09 09:32:39;;;;;;;45.95;29.67;;;;;;;15.73;64.35;103118.13;4881990;28;20126;-66
2021/10/09 09:35:27;;;;;;;46.00;29.35;;;;;;;15.79;65.59;103118.31;4860294;29;20101;-67
2021/10/09 09:40:34;;;;;;;50.95;29.55;;;;;;;15.78;64.09;103111.25;4871093;28;20055;-67
2021/10/09 09:43:00;;;;;;;48.45;30.05;;;;;;;15.78;64.93;103113.00;4859111;29;20115;-67
2021/10/09 09:45:27;;;;;;;50.95;30.23;;;;;;;15.84;64.78;103107.91;4855832;29;20441;-67
2021/10/09 09:47:55;;;;;;;51.08;30.40;;;;;;;15.87;64.33;103107.06;4863622;29;20122;-67
2021/10/09 09:50:21;;;;;;;46.55;29.83;;;;;;;15.81;63.73;103105.16;4842179;28;20118;-66
2021/10/09 09:52:47;;;;;;;49.60;30.52;;;;;;;15.64;64.42;103107.34;4867642;29;20048;-66
2021/10/09 09:55:16;;;;;;;56.83;31.48;;;;;;;15.71;64.11;103103.16;4878259;29;20060;-66
2021/10/09 09:57:44;;;;;;;53.20;30.70;;;;;;;15.65;63.71;103103.88;4838308;29;20619;-67
2021/10/09 10:00:13;;;;;;;47.90;29.55;;;;;;;15.50;64.84;103107.75;4838671;29;21012;-66
2021/10/09 10:02:53;;;;;;;47.13;29.80;;;;;;;15.56;64.63;103100.06;4842852;29;20484;-67
2021/10/09 10:05:22;;;;;;;46.95;29.95;;;;;;;15.63;64.40;103107.28;4845613;29;20498;-67
2021/10/09 10:07:48;;;;;;;50.55;30.10;;;;;;;15.51;64.88;103104.28;4862902;29;20044;-67
2021/10/09 10:10:15;;;;;;;48.63;30.13;;;;;;;15.45;65.84;103102.38;4847108;29;20135;-66
2021/10/09 10:12:41;;;;;;;48.15;29.23;;;;;;;15.64;64.65;103106.44;4847048;29;20043;-66
2021/10/09 10:15:11;;;;;;;47.58;28.48;;;;;;;15.71;65.57;103096.16;4863135;29;20040;-66
2021/10/09 10:17:39;;;;;;;48.42;30.58;;;;;;;15.67;65.54;103107.44;4826321;29;20132;-68
2021/10/09 10:20:18;;;;;;;48.60;29.92;;;;;;;15.65;65.83;103105.63;4839603;29;20368;-66
2021/10/09 10:22:43;;;;;;;49.00;28.80;;;;;;;15.61;63.47;103093.25;4847861;29;20048;-67
2021/10/09 10:25:14;;;;;;;48.13;28.70;;;;;;;15.70;65.48;103102.25;4866813;29;20048;-66
2021/10/09 10:27:40;;;;;;;47.67;29.48;;;;;;;15.66;65.00;103100.41;4869798;29;20135;-67
2021/10/09 10:30:15;;;;;;;45.55;28.55;;;;;;;15.81;64.36;103094.66;4871373;29;20111;-67
2021/10/09 10:32:44;;;;;;;46.05;28.65;;;;;;;15.67;64.63;103094.31;4862508;29;20134;-65
2021/10/09 10:35:28;;;;;;;49.08;28.38;;;;;;;15.89;64.08;103092.22;4868887;29;20077;-67
2021/10/09 10:37:56;;;;;;;45.93;27.97;;;;;;;15.91;63.62;103093.19;4838659;29;20413;-66
2021/10/09 10:40:45;;;;;;;47.55;27.90;;;;;;;15.99;62.12;103089.00;4829305;29;20312;-67
2021/10/09 10:46:19;;;;;;;47.15;29.08;;;;;;;15.96;63.48;103091.56;4851922;29;20047;-67
2021/10/09 10:49:04;;;;;;;48.60;28.92;;;;;;;15.52;63.99;103092.94;4857204;29;20073;-66
2021/10/09 11:00:03;;;;;;;46.50;29.10;;;;;;;16.06;61.69;103091.81;4858873;29;20041;-68
2021/10/09 11:02:37;;;;;;;47.50;28.83;;;;;;;16.22;63.37;103086.09;4873568;29;20510;-68
2021/10/09 11:05:13;;;;;;;49.33;28.73;;;;;;;16.16;62.47;103096.47;4881151;28;20092;-66
2021/10/09 11:07:41;;;;;;;51.33;30.00;;;;;;;16.06;63.82;103094.47;4861077;29;20044;-67
2021/10/09 11:10:09;;;;;;;45.30;29.15;;;;;;;16.18;63.06;103094.78;4850755;29;20072;-66
2021/10/09 11:12:36;;;;;;;48.35;28.95;;;;;;;16.23;62.24;103087.00;4841724;28;20399;-67
2021/10/09 11:15:17;;;;;;;51.17;29.52;;;;;;;16.30;62.77;103088.03;4886346;28;20059;-67
2021/10/09 11:17:48;;;;;;;46.42;28.98;;;;;;;16.23;62.90;103087.88;4894168;28;20058;-66
2021/10/09 11:20:22;;;;;;;46.72;29.15;;;;;;;16.28;61.38;103097.66;4862852;29;21429;-66
2021/10/09 11:22:50;;;;;;;52.58;30.15;;;;;;;16.24;62.02;103092.31;4882299;28;20751;-66
2021/10/09 11:25:27;;;;;;;46.85;29.38;;;;;;;16.30;61.62;103088.94;4853972;29;20734;-66
2021/10/09 11:27:53;;;;;;;47.08;29.45;;;;;;;16.55;61.02;103083.41;4886072;28;20166;-67
2021/10/09 11:30:19;;;;;;;42.83;28.15;;;;;;;16.76;61.09;103083.06;4873203;28;20043;-66
2021/10/09 11:32:44;;;;;;;47.38;28.23;;;;;;;16.96;61.61;103087.03;4880862;28;20206;-66
2021/10/09 11:35:11;;;;;;;49.05;30.48;;;;;;;16.80;62.66;103082.28;4860334;29;20362;-66
2021/10/09 11:37:51;;;;;;;50.17;30.58;;;;;;;16.96;61.25;103079.13;4885514;28;20581;-67
2021/10/09 11:40:31;;;;;;;49.75;31.70;;;;;;;16.34;63.59;103082.91;4862140;29;20055;-67
2021/10/09 11:43:46;;;;;;;54.28;30.92;;;;;;;16.61;61.98;103074.81;4850880;29;20066;-67
2021/10/09 11:46:04;;;;;;;46.85;29.08;;;;;;;16.81;62.53;103076.16;4856871;29;20051;-66
2021/10/09 11:54:30;;;;;;;49.53;29.65;;;;;;;16.75;61.18;103076.00;4849319;29;20628;-67
2021/10/09 11:56:53;;;;;;;49.75;30.88;;;;;;;17.03;61.72;103072.25;4873542;29;20059;-67
2021/10/09 11:59:35;;;;;;;48.15;30.13;;;;;;;17.11;60.58;103073.31;4884658;29;20048;-67
2021/10/09 12:02:00;;;;;;;47.45;29.58;;;;;;;17.00;60.70;103072.19;4874609;29;20134;-66
2021/10/09 12:04:25;;;;;;;52.95;30.42;;;;;;;16.95;62.06;103066.81;4864147;29;20050;-68
2021/10/09 12:06:55;;;;;;;45.17;30.33;;;;;;;16.85;62.76;103071.84;4867378;29;20043;-68
2021/10/09 12:09:46;;;;;;;52.97;30.05;;;;;;;17.08;61.80;103072.38;4882260;29;20047;-68
2021/10/09 12:12:16;;;;;;;48.40;30.25;;;;;;;17.11;61.94;103073.31;4889124;29;20043;-68
2021/10/09 12:14:41;;;;;;;51.15;29.67;;;;;;;17.22;60.29;103068.25;4884781;28;20497;-67
2021/10/09 12:17:06;;;;;;;47.47;29.77;;;;;;;17.28;60.74;103071.91;4875391;29;20055;-68
2021/10/09 12:19:32;;;;;;;50.50;30.88;;;;;;;17.40;59.70;103064.25;4879590;28;20040;-68
2021/10/09 12:21:59;;;;;;;51.83;30.75;;;;;;;17.37;60.93;103064.19;4867846;29;20043;-67
2021/10/09 12:24:27;;;;;;;49.95;31.20;;;;;;;17.27;59.88;103061.31;4842091;28;20047;-68
2021/10/09 12:27:04;;;;;;;48.58;30.85;;;;;;;17.46;59.29;103058.19;4889074;29;20047;-67
2021/10/09 12:29:31;;;;;;;47.60;31.35;;;;;;;17.11;61.87;103059.22;4871808;28;20135;-67
2021/10/09 12:32:15;;;;;;;52.90;31.35;;;;;;;17.34;59.66;103050.94;4883468;29;20415;-69
2021/10/09 12:34:42;;;;;;;46.97;30.92;;;;;;;17.41;60.67;103052.84;4879496;28;20055;-67
2021/10/09 12:37:08;;;;;;;48.22;30.70;;;;;;;17.44;59.52;103046.75;4878301;29;20040;-67
2021/10/09 12:39:33;;;;;;;52.97;31.88;;;;;;;17.42;60.18;103045.81;4890083;28;20031;-68
2021/10/09 12:41:59;;;;;;;50.00;30.55;;;;;;;17.57;60.35;103046.09;4870685;29;20526;-67
2021/10/09 12:44:24;;;;;;;47.75;30.02;;;;;;;17.52;60.43;103041.59;4861041;28;20586;-67
2021/10/09 12:46:50;;;;;;;50.72;30.50;;;;;;;17.44;61.03;103042.34;4884768;28;20470;-67
2021/10/09 12:49:16;;;;;;;48.67;31.80;;;;;;;17.34;60.16;103037.75;4880313;28;20043;-67
2021/10/09 12:51:42;;;;;;;47.17;30.75;;;;;;;17.26;61.20;103043.75;4878919;29;20040;-67
2021/10/09 12:54:08;;;;;;;50.60;31.05;;;;;;;17.12;60.34;103038.19;4871606;29;20510;-68
2021/10/09 12:56:37;;;;;;;52.42;31.55;;;;;;;17.37;59.94;103034.31;4876182;28;21250;-66
2021/10/09 12:59:03;;;;;;;48.33;30.20;;;;;;;17.48;59.67;103035.41;4863402;29;20515;-68
2021/10/09 13:01:29;;;;;;;47.70;30.65;;;;;;;17.52;60.50;103036.31;4886988;28;20043;-67
2021/10/09 13:03:54;;;;;;;49.92;31.60;;;;;;;17.50;59.38;103030.16;4880044;28;20039;-66
2021/10/09 13:06:20;;;;;;;50.45;30.98;;;;;;;17.38;59.67;103030.81;4876123;28;20115;-68
2021/10/09 13:08:45;;;;;;;57.22;30.58;;;;;;;17.40;60.32;103027.31;4851269;29;20123;-67
2021/10/09 13:11:11;;;;;;;48.45;31.00;;;;;;;17.45;59.75;103028.31;4868722;29;20094;-65
2021/10/09 13:13:38;;;;;;;52.80;30.63;;;;;;;17.41;61.88;103028.22;4867751;28;21479;-66
2021/10/09 13:16:03;;;;;;;48.53;29.50;;;;;;;17.37;60.08;103023.75;4884956;29;20384;-65
2021/10/09 13:18:28;;;;;;;48.10;30.38;;;;;;;17.53;61.25;103030.19;4843711;29;20683;-67
2021/10/09 13:20:54;;;;;;;48.22;29.85;;;;;;;17.55;60.95;103024.09;4887282;28;20052;-68